Time;durP1;ratioP1;P1;durP2;ratioP2;P2;SDS_P1;SDS_P2;PMS_P1;PMS_P2;Temp;Humidity;BMP_temperature;BMP_pressure;BME280_temperature;BME280_humidity;BME280_pressure;Samples;Min_cycle;Max_cycle;Signal;HPM_P1;HPM_P2
2022/10/22 00:00:10;;;;;;;4.43;3.40;;;;;;;8.60;100.00;80351.56;5093661;28;20188;-60
2022/10/22 00:02:37;;;;;;;4.23;3.93;;;;;;;8.59;100.00;77741.47;5093429;28;20184;-60
2022/10/22 00:05:04;;;;;;;4.13;3.93;;;;;;;8.66;100.00;79055.06;5093299;28;20188;-60
2022/10/22 00:07:31;;;;;;;3.70;3.23;;;;;;;8.70;100.00;70916.38;5093417;28;20208;-60
2022/10/22 00:09:58;;;;;;;3.70;3.40;;;;;;;8.70;100.00;69289.88;5093677;28;20512;-60
2022/10/22 00:12:27;;;;;;;3.53;3.33;;;;;;;8.71;100.00;68315.53;5093328;28;20658;-61
2022/10/22 00:14:54;;;;;;;3.50;3.30;;;;;;;8.71;100.00;70917.00;5093091;28;20195;-61
2022/10/22 00:17:20;;;;;;;4.37;3.30;;;;;;;8.57;100.00;66348.66;5093129;28;20190;-60
2022/10/22 00:19:47;;;;;;;3.60;3.40;;;;;;;8.62;100.00;64405.53;5093122;28;20188;-60
2022/10/22 00:22:14;;;;;;;4.33;3.30;;;;;;;8.64;100.00;66032.38;5093163;28;20180;-60
2022/10/22 00:24:41;;;;;;;3.37;3.20;;;;;;;8.54;100.00;63423.31;5093524;28;20527;-60
2022/10/22 00:27:10;;;;;;;3.60;3.40;;;;;;;8.60;100.00;61482.78;5093231;28;20195;-60
2022/10/22 00:29:39;;;;;;;6.00;3.40;;;;;;;8.48;100.00;58227.94;5092935;28;20230;-60
2022/10/22 00:32:07;;;;;;;3.37;3.00;;;;;;;8.63;100.00;55651.03;5092866;28;20192;-60
2022/10/22 00:34:34;;;;;;;3.80;3.50;;;;;;;8.61;100.00;53059.06;5092895;28;20191;-61
2022/10/22 00:37:01;;;;;;;5.90;3.37;;;;;;;8.75;100.00;56958.19;5092824;28;20184;-60
2022/10/22 00:39:31;;;;;;;3.60;3.30;;;;;;;8.69;100.00;58249.19;5092774;28;20188;-60
2022/10/22 00:42:01;;;;;;;5.20;3.20;;;;;;;8.73;100.00;57928.53;5093090;28;20604;-61
2022/10/22 00:45:15;;;;;;;5.50;3.80;;;;;;;8.70;100.00;57601.38;5092708;28;20188;-61
2022/10/22 00:47:46;;;;;;;6.73;3.73;;;;;;;8.77;100.00;53073.41;5092492;28;20207;-61
2022/10/22 00:50:17;;;;;;;5.13;4.03;;;;;;;8.78;100.00;48545.34;5092754;28;20599;-60
2022/10/22 00:52:44;;;;;;;3.93;3.50;;;;;;;8.81;100.00;49194.13;5092853;28;20554;-60
2022/10/22 00:55:12;;;;;;;3.90;3.57;;;;;;;8.75;100.00;50806.41;5092469;28;20184;-61
2022/10/22 00:57:39;;;;;;;4.47;3.17;;;;;;;8.79;100.00;48222.91;5092804;28;20192;-60
2022/10/22 01:00:09;;;;;;;3.00;2.90;;;;;;;8.90;100.00;48231.81;5092429;28;20184;-61
2022/10/22 01:02:36;;;;;;;6.50;3.80;;;;;;;8.86;100.00;44674.09;5092293;28;20184;-60
2022/10/22 01:05:03;;;;;;;3.23;3.13;;;;;;;8.88;100.00;48230.53;5092448;28;20192;-60
2022/10/22 01:07:31;;;;;;;6.23;3.30;;;;;;;8.97;100.00;48238.13;5091336;28;20329;-60
2022/10/22 01:10:07;;;;;;;3.37;3.27;;;;;;;8.61;100.00;49177.78;5091325;28;20180;-61
2022/10/22 01:12:45;;;;;;;4.37;3.60;;;;;;;8.64;100.00;48533.47;5092504;28;20627;-60
2022/10/22 01:15:21;;;;;;;3.80;3.50;;;;;;;8.35;100.00;48508.81;5092406;28;20672;-59
2022/10/22 01:17:55;;;;;;;3.63;3.33;;;;;;;8.44;100.00;43673.81;5092352;28;20630;-60
2022/10/22 01:20:47;;;;;;;10.63;3.50;;;;;;;8.52;100.00;38843.22;5092105;28;20194;-61
2022/10/22 01:23:34;;;;;;;3.57;3.47;;;;;;;8.49;100.00;37230.53;5092257;28;20184;-60
2022/10/22 01:26:09;;;;;;;5.37;3.80;;;;;;;8.50;100.00;36265.16;5092002;28;20191;-61
2022/10/22 01:28:53;;;;;;;4.07;3.77;;;;;;;8.61;100.00;35306.06;5091854;28;20203;-60
2022/10/22 01:31:22;;;;;;;3.70;3.50;;;;;;;8.54;100.00;36589.75;5091922;28;20283;-61
2022/10/22 01:33:51;;;;;;;4.90;4.00;;;;;;;8.74;100.00;28237.66;5091880;28;20191;-61
2022/10/22 01:36:19;;;;;;;3.60;3.30;;;;;;;8.75;100.00;32739.91;5092378;28;20204;-61
2022/10/22 01:38:48;;;;;;;4.57;3.23;;;;;;;8.81;100.00;35962.47;5091858;28;20187;-61
2022/10/22 01:41:15;;;;;;;9.40;3.53;;;;;;;8.81;100.00;39184.91;5091786;28;20264;-61
2022/10/22 01:43:42;;;;;;;3.70;3.40;;;;;;;8.68;100.00;39176.56;5091750;28;20267;-60
2022/10/22 01:46:13;;;;;;;6.63;3.50;;;;;;;8.53;100.00;40777.81;5091780;28;20192;-61
2022/10/22 01:48:52;;;;;;;3.50;3.30;;;;;;;8.48;100.00;36263.88;5091668;28;20212;-61
2022/10/22 01:51:37;;;;;;;4.03;3.27;;;;;;;8.49;100.00;31760.19;5091631;28;20186;-60
2022/10/22 01:54:12;;;;;;;7.17;4.23;;;;;;;8.62;100.00;30481.50;5091552;28;20200;-60
2022/10/22 01:56:52;;;;;;;3.60;3.30;;;;;;;8.53;100.00;28548.59;5091599;28;20183;-62
2022/10/22 01:59:29;;;;;;;4.03;3.43;;;;;;;8.48;100.00;26940.34;5091839;28;20180;-60
2022/10/22 02:02:04;;;;;;;7.73;3.67;;;;;;;8.63;100.00;22454.72;5091578;28;20196;-60
2022/10/22 02:04:35;;;;;;;3.60;3.40;;;;;;;8.64;100.00;22134.44;5091839;28;20498;-60
2022/10/22 02:07:07;;;;;;;3.37;3.13;;;;;;;8.68;100.00;24381.94;5091588;28;20271;-61
2022/10/22 02:09:36;;;;;;;3.87;3.57;;;;;;;8.77;100.00;27918.16;5091364;28;20214;-61
2022/10/22 02:12:06;;;;;;;3.70;3.50;;;;;;;8.83;100.00;25351.34;5091473;28;20259;-60
2022/10/22 02:14:37;;;;;;;7.87;3.67;;;;;;;8.61;100.00;30802.44;5091493;28;20184;-60
2022/10/22 02:17:09;;;;;;;3.30;3.00;;;;;;;8.69;100.00;34023.50;5091339;28;20184;-60
2022/10/22 02:19:41;;;;;;;10.30;4.43;;;;;;;8.70;100.00;31450.59;5091961;28;20203;-61
2022/10/22 02:22:08;;;;;;;5.13;3.17;;;;;;;8.80;100.00;29526.34;5095433;28;20184;-62
2022/10/22 02:24:35;;;;;;;11.10;3.43;;;;;;;8.85;100.00;29529.03;5095490;28;20188;-61
2022/10/22 02:27:10;;;;;;;2.47;2.37;;;;;;;8.96;100.00;29534.94;5095269;28;20192;-61
2022/10/22 02:29:43;;;;;;;3.23;2.93;;;;;;;8.90;100.00;36612.59;5095287;28;20226;-61
2022/10/22 02:32:18;;;;;;;3.33;3.03;;;;;;;8.82;100.00;38863.56;5095184;28;20184;-60
2022/10/22 02:34:46;;;;;;;3.50;3.20;;;;;;;8.85;100.00;44673.28;5095373;28;20630;-61
2022/10/22 02:37:14;;;;;;;4.20;3.90;;;;;;;8.94;100.00;45003.38;5095445;28;20642;-60
2022/10/22 02:39:41;;;;;;;4.07;3.77;;;;;;;9.06;100.00;45982.69;5095254;28;20190;-61
2022/10/22 02:42:10;;;;;;;4.77;3.10;;;;;;;8.96;100.00;52443.44;5095007;28;20199;-61
2022/10/22 02:44:38;;;;;;;8.87;3.60;;;;;;;9.03;100.00;55041.13;5095075;28;20317;-62
2022/10/22 02:47:05;;;;;;;3.80;3.60;;;;;;;9.09;100.00;54074.34;5094964;28;20223;-60
2022/10/22 02:49:33;;;;;;;3.93;3.50;;;;;;;9.00;100.00;57955.19;5094907;28;20207;-62
2022/10/22 02:52:01;;;;;;;3.30;3.03;;;;;;;8.96;100.00;62169.34;5095128;28;20626;-62
2022/10/22 02:54:28;;;;;;;4.93;3.57;;;;;;;8.98;100.00;62496.75;5094851;28;20184;-60
2022/10/22 02:56:54;;;;;;;2.77;2.57;;;;;;;8.99;100.00;65421.63;5094701;28;20192;-60
2022/10/22 02:59:21;;;;;;;3.93;3.13;;;;;;;9.01;100.00;64773.91;5094700;28;20185;-60
2022/10/22 03:01:48;;;;;;;6.03;3.47;;;;;;;8.91;100.00;73871.47;5094961;28;20539;-61
2022/10/22 03:04:15;;;;;;;6.57;2.83;;;;;;;9.01;100.00;72906.84;5094606;28;20188;-60
2022/10/22 03:06:44;;;;;;;3.57;3.37;;;;;;;9.05;100.00;77149.19;5094914;28;20188;-60
2022/10/22 03:09:11;;;;;;;9.47;3.30;;;;;;;8.94;100.00;79744.34;5094461;28;20203;-60
2022/10/22 03:11:38;;;;;;;5.50;4.53;;;;;;;8.79;100.00;79071.34;5094547;28;20184;-60
2022/10/22 03:14:05;;;;;;;5.30;4.70;;;;;;;8.98;100.00;70298.38;5094452;28;20549;-60
2022/10/22 03:16:32;;;;;;;4.07;3.77;;;;;;;9.28;100.00;70660.38;5094359;28;20195;-60
2022/10/22 03:19:00;;;;;;;3.67;3.47;;;;;;;9.46;100.00;80142.16;5094349;28;20190;-63
2022/10/22 03:21:31;;;;;;;3.30;3.10;;;;;;;9.40;100.00;102087.16;5094575;28;20678;-61
2022/10/22 03:24:03;;;;;;;2.63;2.53;;;;;;;9.67;100.00;102461.34;5094593;28;20611;-61
2022/10/22 03:26:30;;;;;;;3.47;3.17;;;;;;;9.66;100.00;132250.84;5076180;28;20196;-63
2022/10/22 03:28:57;;;;;;;10.43;2.63;;;;;;;9.64;100.00;132844.56;5093987;28;20216;-60
2022/10/22 03:31:23;;;;;;;2.97;2.33;;;;;;;9.82;100.00;147156.31;5093265;28;20687;-61
2022/10/22 03:33:50;;;;;;;7.23;3.20;;;;;;;9.90;100.00;148531.47;5094282;28;20562;-60
2022/10/22 03:36:17;;;;;;;2.43;2.07;;;;;;;10.03;100.00;148563.06;5094447;28;20286;-60
2022/10/22 03:38:45;;;;;;;5.13;2.53;;;;;;;10.04;100.00;148566.88;5094241;28;20726;-60
2022/10/22 03:41:13;;;;;;;7.87;3.37;;;;;;;10.02;100.00;148560.50;5094130;28;20192;-60
2022/10/22 03:43:40;;;;;;;7.70;4.00;;;;;;;9.78;100.00;148499.88;5093894;28;20180;-61
2022/10/22 03:46:07;;;;;;;4.13;3.80;;;;;;;9.84;100.00;148515.06;5094080;28;20247;-61
2022/10/22 03:48:34;;;;;;;3.30;3.10;;;;;;;9.82;100.00;148510.00;5093752;28;20299;-60
2022/10/22 03:51:01;;;;;;;4.47;4.07;;;;;;;9.78;100.00;148499.88;5092797;28;20271;-61
2022/10/22 03:53:30;;;;;;;4.93;4.07;;;;;;;9.71;100.00;148483.50;5093701;28;20195;-60
2022/10/22 03:55:57;;;;;;;5.13;4.00;;;;;;;9.64;100.00;148467.03;5093861;28;20222;-60
2022/10/22 03:58:26;;;;;;;5.30;4.77;;;;;;;9.29;100.00;148378.66;5093627;28;20184;-60
2022/10/22 04:00:52;;;;;;;5.70;5.40;;;;;;;9.12;100.00;148335.75;5093505;28;20184;-60
2022/10/22 04:03:19;;;;;;;4.97;4.57;;;;;;;8.95;100.00;148292.81;5093702;28;20658;-60
2022/10/22 04:05:46;;;;;;;4.47;4.07;;;;;;;8.79;100.00;141508.66;5093708;28;20206;-60
2022/10/22 04:08:13;;;;;;;9.90;4.80;;;;;;;8.18;100.00;112061.16;5093275;28;20188;-60
2022/10/22 04:10:40;;;;;;;7.00;6.37;;;;;;;8.34;100.00;102888.78;5093256;28;20184;-60
2022/10/22 04:13:07;;;;;;;5.93;3.70;;;;;;;8.32;100.00;95671.50;5093265;28;20188;-60
2022/10/22 04:15:35;;;;;;;8.57;4.40;;;;;;;8.29;100.00;95339.91;5093384;28;20180;-61
2022/10/22 04:18:02;;;;;;;4.23;3.80;;;;;;;8.17;100.00;92374.91;5093329;28;20214;-60
2022/10/22 04:20:29;;;;;;;2.30;2.20;;;;;;;8.28;100.00;80307.41;5093191;28;20195;-61
2022/10/22 04:22:56;;;;;;;8.03;5.60;;;;;;;8.43;100.00;74136.63;5093188;28;20187;-61
2022/10/22 04:25:23;;;;;;;4.00;3.17;;;;;;;8.61;100.00;72857.31;5093409;28;20242;-60
2022/10/22 04:27:49;;;;;;;12.57;6.17;;;;;;;9.00;100.00;90539.69;5093366;28;20210;-61
2022/10/22 04:30:16;;;;;;;11.57;5.73;;;;;;;8.99;100.00;111554.47;5092991;28;20601;-61
2022/10/22 04:32:45;;;;;;;4.77;3.57;;;;;;;9.26;100.00;119852.50;5093296;28;20194;-61
2022/10/22 04:35:12;;;;;;;2.83;2.73;;;;;;;9.11;100.00;139961.28;5093150;28;20200;-61
2022/10/22 04:37:38;;;;;;;2.40;2.30;;;;;;;9.35;100.00;132779.03;5093495;28;20574;-61
2022/10/22 04:40:07;;;;;;;3.03;2.50;;;;;;;9.56;100.00;146395.34;5093259;28;20192;-60
2022/10/22 04:42:33;;;;;;;3.50;2.97;;;;;;;9.79;100.00;148503.69;5092936;28;20188;-60
2022/10/22 04:45:00;;;;;;;2.60;2.40;;;;;;;10.02;100.00;148560.50;5091896;28;20563;-60
2022/10/22 04:47:27;;;;;;;3.00;2.80;;;;;;;9.92;100.00;148535.28;5091687;28;20188;-61
2022/10/22 04:49:55;;;;;;;3.17;3.07;;;;;;;10.34;100.00;148640.19;5093175;28;20207;-60
2022/10/22 04:52:22;;;;;;;14.03;5.87;;;;;;;10.41;100.00;148657.88;5092768;28;20198;-61
2022/10/22 04:54:49;;;;;;;3.33;2.47;;;;;;;10.59;100.00;148703.38;5075145;28;20202;-61
2022/10/22 04:57:16;;;;;;;3.33;3.13;;;;;;;10.69;100.00;148727.44;5093299;28;20188;-60
2022/10/22 04:59:43;;;;;;;3.40;3.17;;;;;;;10.79;100.00;148753.94;5092636;28;20188;-60
2022/10/22 05:02:10;;;;;;;3.00;2.87;;;;;;;10.94;100.00;148790.63;5092819;28;20557;-60
2022/10/22 05:04:37;;;;;;;4.37;2.90;;;;;;;11.19;100.00;148853.84;5092615;28;20634;-60
2022/10/22 05:07:05;;;;;;;2.90;2.80;;;;;;;11.49;100.00;148927.22;5092481;28;20210;-61
2022/10/22 05:09:32;;;;;;;8.73;3.87;;;;;;;11.79;100.00;149003.19;5092787;28;20638;-60
2022/10/22 05:11:59;;;;;;;6.27;4.20;;;;;;;12.02;100.00;149061.34;5092191;28;20694;-61
2022/10/22 05:14:26;;;;;;;5.77;5.00;;;;;;;12.37;100.00;149148.69;5092611;28;20628;-61
2022/10/22 05:16:54;;;;;;;14.47;5.77;;;;;;;12.47;100.00;149172.75;5092224;28;20187;-61
2022/10/22 05:19:23;;;;;;;5.20;4.80;;;;;;;12.79;100.00;149253.78;5092413;28;20658;-61
2022/10/22 05:21:50;;;;;;;5.43;4.60;;;;;;;13.06;100.00;149320.91;5092073;28;20598;-60
2022/10/22 05:24:18;;;;;;;6.60;4.30;;;;;;;13.27;100.00;149375.44;5091978;28;20184;-60
2022/10/22 05:26:45;;;;;;;3.93;3.63;;;;;;;13.70;100.00;149481.84;5092042;28;20188;-61
2022/10/22 05:29:12;;;;;;;6.57;3.53;;;;;;;14.32;100.00;149636.47;5091851;28;20219;-61
2022/10/22 05:31:39;;;;;;;3.90;3.30;;;;;;;14.77;100.00;149750.63;5091942;28;20184;-61
2022/10/22 05:34:06;;;;;;;4.63;3.30;;;;;;;15.40;100.00;149909.16;5092113;28;20191;-61
2022/10/22 05:36:33;;;;;;;10.77;4.17;;;;;;;15.82;100.00;150013.31;5092256;28;20202;-61
2022/10/22 05:39:00;;;;;;;9.37;3.47;;;;;;;16.02;100.00;150064.06;5092038;28;20181;-60
2022/10/22 05:41:29;;;;;;;5.80;3.73;;;;;;;16.65;100.00;150221.56;5092161;28;20188;-60
2022/10/22 05:43:57;;;;;;;19.57;4.00;;;;;;;16.99;100.00;150307.94;5091663;28;20188;-61
2022/10/22 05:46:25;;;;;;;5.00;3.00;;;;;;;17.03;100.00;150316.81;5091828;28;20194;-61
2022/10/22 05:48:55;;;;;;;8.73;3.60;;;;;;;16.69;100.00;150233.00;5091957;28;20520;-61
2022/10/22 05:51:23;;;;;;;3.20;2.97;;;;;;;17.00;100.00;150309.19;5092017;28;20206;-61
2022/10/22 05:53:52;;;;;;;6.40;3.23;;;;;;;17.14;100.00;150344.78;5091646;28;20341;-61
2022/10/22 05:56:20;;;;;;;4.73;3.20;;;;;;;17.24;100.00;150371.44;5091363;28;20211;-60
2022/10/22 05:58:48;;;;;;;6.80;2.90;;;;;;;17.06;100.00;150324.47;5091704;28;20192;-61
2022/10/22 06:01:18;;;;;;;7.00;2.90;;;;;;;16.99;100.00;150307.94;5091891;28;20195;-61
2022/10/22 06:03:46;;;;;;;9.57;3.20;;;;;;;16.88;100.00;150280.00;5091666;28;20192;-60
2022/10/22 06:06:19;;;;;;;7.27;2.80;;;;;;;16.53;100.00;150191.03;5091372;28;20184;-61
2022/10/22 06:08:47;;;;;;;3.10;2.80;;;;;;;16.44;100.00;150169.44;5091775;28;20192;-61
2022/10/22 06:11:16;;;;;;;3.83;2.90;;;;;;;16.25;100.00;150122.44;5091440;28;20195;-60
2022/10/22 06:13:43;;;;;;;5.87;3.43;;;;;;;16.27;100.00;150126.28;5091560;28;20220;-61
2022/10/22 06:16:12;;;;;;;3.40;3.10;;;;;;;16.55;100.00;150197.38;5091474;28;20184;-61
2022/10/22 06:18:38;;;;;;;4.30;2.77;;;;;;;16.65;100.00;150222.81;5092116;28;20188;-61
2022/10/22 06:21:06;;;;;;;4.90;2.53;;;;;;;16.72;100.00;150239.38;5091867;28;20585;-61
2022/10/22 06:23:33;;;;;;;6.27;2.37;;;;;;;16.94;100.00;150295.22;5091823;28;20211;-62
2022/10/22 06:26:01;;;;;;;4.47;2.67;;;;;;;17.34;100.00;150396.88;5091428;28;20188;-61
2022/10/22 06:28:28;;;;;;;3.57;2.47;;;;;;;17.38;100.00;150404.50;5091696;28;20198;-61
2022/10/22 06:30:57;;;;;;;3.77;2.63;;;;;;;17.60;100.00;150461.75;5091207;28;20625;-62
2022/10/22 06:33:26;;;;;;;2.97;2.10;;;;;;;17.76;98.81;150501.13;5091336;28;20198;-62
2022/10/22 06:35:53;;;;;;;2.40;2.30;;;;;;;17.92;98.69;150540.50;5091653;28;20232;-60
2022/10/22 06:38:21;;;;;;;5.00;2.60;;;;;;;18.16;97.06;150601.56;5091475;28;20184;-61
2022/10/22 06:40:48;;;;;;;3.17;2.03;;;;;;;18.33;94.39;150644.75;5091103;28;20186;-60
2022/10/22 06:43:15;;;;;;;6.90;2.20;;;;;;;18.73;91.76;150744.00;5091325;28;20192;-61
2022/10/22 06:45:42;;;;;;;2.43;2.10;;;;;;;18.93;90.65;150796.16;5090019;28;20194;-61
2022/10/22 06:48:09;;;;;;;5.07;2.50;;;;;;;19.05;87.90;150825.44;5073102;28;20200;-60
2022/10/22 06:50:37;;;;;;;3.37;2.33;;;;;;;19.41;85.69;150915.75;5091345;28;20200;-61
2022/10/22 06:53:04;;;;;;;5.73;2.00;;;;;;;19.44;84.44;150923.44;5090892;28;20199;-61
2022/10/22 06:55:31;;;;;;;2.43;2.03;;;;;;;19.64;85.11;150973.09;5090951;28;20241;-60
2022/10/22 06:57:58;;;;;;;2.10;2.00;;;;;;;19.90;81.01;151039.31;5091277;28;20188;-62
2022/10/22 07:00:25;;;;;;;1.90;1.80;;;;;;;20.00;80.82;151064.72;5091029;28;20204;-61
2022/10/22 07:02:53;;;;;;;2.43;2.23;;;;;;;19.95;80.71;151052.00;5091028;28;20192;-61
2022/10/22 07:05:20;;;;;;;4.75;1.80;;;;;;;20.24;77.23;151125.81;5091076;28;20192;-61
2022/10/22 07:07:49;;;;;;;3.97;2.27;;;;;;;19.78;80.26;151008.72;5093057;28;20245;-62
2022/10/22 07:10:16;;;;;;;2.33;1.77;;;;;;;20.02;77.61;151069.84;5076590;28;20200;-60
2022/10/22 07:12:43;;;;;;;2.03;1.83;;;;;;;20.68;77.05;151235.41;5094797;28;20184;-62
2022/10/22 07:15:10;;;;;;;1.58;1.20;;;;;;;21.26;70.63;151383.22;5094365;28;20275;-61
2022/10/22 07:17:37;;;;;;;2.60;2.30;;;;;;;21.63;69.01;151475.00;5094891;28;20263;-62
2022/10/22 07:20:05;;;;;;;4.15;1.85;;;;;;;21.26;68.58;151383.22;5094665;28;20557;-62
2022/10/22 07:22:32;;;;;;;5.10;2.42;;;;;;;20.70;70.10;151240.53;5094375;28;20279;-62
2022/10/22 07:25:01;;;;;;;6.00;2.83;;;;;;;20.73;70.72;151249.44;5094649;28;20657;-62
2022/10/22 07:27:28;;;;;;;2.85;2.05;;;;;;;20.90;69.92;151291.47;5094293;28;20192;-62
2022/10/22 07:29:55;;;;;;;1.80;1.70;;;;;;;20.79;68.65;151264.69;5092754;28;20270;-61
2022/10/22 07:32:21;;;;;;;2.47;2.28;;;;;;;20.80;68.99;151265.97;5094262;28;20271;-61
2022/10/22 07:34:48;;;;;;;4.70;1.95;;;;;;;21.01;68.91;151319.47;5094065;28;20282;-61
2022/10/22 07:37:15;;;;;;;5.18;2.03;;;;;;;21.75;64.80;151506.88;5094283;28;20181;-61
2022/10/22 07:39:45;;;;;;;1.98;1.88;;;;;;;21.76;62.73;151509.44;5094342;28;20218;-61
2022/10/22 07:42:13;;;;;;;3.10;1.80;;;;;;;21.61;63.83;151469.88;5094033;28;20216;-62
2022/10/22 07:44:40;;;;;;;2.85;2.03;;;;;;;22.11;62.18;151597.41;5094043;28;20194;-62
2022/10/22 07:47:07;;;;;;;2.33;2.10;;;;;;;22.08;60.26;151588.50;5093855;28;20188;-61
2022/10/22 07:49:34;;;;;;;3.47;2.28;;;;;;;22.32;60.55;151649.69;5093772;28;20204;-61
2022/10/22 07:52:01;;;;;;;2.88;1.67;;;;;;;22.46;58.80;151685.41;5094048;28;20532;-61
2022/10/22 07:54:30;;;;;;;7.22;2.95;;;;;;;22.93;56.11;151802.78;5093652;28;20188;-62
2022/10/22 07:56:57;;;;;;;5.97;2.38;;;;;;;22.37;58.81;151662.44;5093708;28;20275;-61
2022/10/22 07:59:25;;;;;;;9.23;2.05;;;;;;;22.74;58.31;151755.63;5093941;28;20524;-61
2022/10/22 08:01:52;;;;;;;2.13;1.95;;;;;;;23.33;55.02;151904.88;5093663;28;20191;-62
2022/10/22 08:04:20;;;;;;;2.15;2.05;;;;;;;24.28;51.41;152143.63;5093772;28;20180;-61
2022/10/22 08:06:46;;;;;;;5.65;2.13;;;;;;;24.26;51.66;152138.56;5075314;28;20191;-61
2022/10/22 08:09:13;;;;;;;3.78;1.90;;;;;;;23.41;51.47;151924.00;5093830;28;20180;-62
2022/10/22 08:11:40;;;;;;;2.50;1.50;;;;;;;23.09;52.65;151843.59;5093449;28;20195;-61
2022/10/22 08:14:07;;;;;;;4.43;2.20;;;;;;;22.76;54.80;151761.97;5093737;28;20638;-61
2022/10/22 08:16:35;;;;;;;2.38;1.95;;;;;;;22.22;55.20;151625.50;5093624;28;20184;-62
2022/10/22 08:19:02;;;;;;;4.78;1.80;;;;;;;22.82;55.39;151774.75;5093031;28;20192;-62
2022/10/22 08:21:29;;;;;;;1.90;1.80;;;;;;;23.43;53.94;151930.44;5093620;28;20678;-62
2022/10/22 08:23:56;;;;;;;2.10;2.00;;;;;;;22.88;54.25;151791.31;5093507;28;20579;-61
2022/10/22 08:26:25;;;;;;;2.90;2.13;;;;;;;22.93;53.32;151804.06;5093121;28;20219;-62
2022/10/22 08:28:52;;;;;;;3.50;1.90;;;;;;;23.00;52.56;151820.69;5092901;28;20582;-62
2022/10/22 08:31:19;;;;;;;3.67;2.05;;;;;;;24.03;50.47;152081.03;5075291;28;20304;-61
2022/10/22 08:33:47;;;;;;;2.08;1.73;;;;;;;24.96;48.32;152317.38;5093047;28;20191;-60
2022/10/22 08:36:14;;;;;;;2.08;1.83;;;;;;;25.09;47.60;152348.03;5093217;28;20204;-61
2022/10/22 08:38:41;;;;;;;4.13;2.25;;;;;;;25.35;46.78;152415.75;5093165;28;20687;-61
2022/10/22 08:41:12;;;;;;;5.78;2.20;;;;;;;25.63;44.81;152486.06;5074910;28;20188;-61
2022/10/22 08:44:07;;;;;;;3.60;2.00;;;;;;;25.42;44.33;152432.34;5092751;28;20284;-61
2022/10/22 08:46:51;;;;;;;3.22;2.13;;;;;;;25.43;45.35;152434.91;5092739;28;20185;-60
2022/10/22 08:49:23;;;;;;;5.63;2.38;;;;;;;26.43;43.47;152688.13;5092529;28;20282;-60
2022/10/22 08:51:51;;;;;;;2.05;1.85;;;;;;;26.33;42.01;152663.81;5092472;28;20207;-62
2022/10/22 08:54:32;;;;;;;2.55;1.83;;;;;;;25.53;43.24;152460.53;5092938;28;20246;-61
2022/10/22 08:57:16;;;;;;;3.70;2.20;;;;;;;26.14;43.05;152613.94;5092874;28;20262;-61
2022/10/22 08:59:51;;;;;;;2.65;2.47;;;;;;;27.11;40.72;152859.53;5092900;28;20674;-61
2022/10/22 09:02:34;;;;;;;3.65;2.13;;;;;;;26.72;41.47;152762.28;5092666;28;20257;-60
2022/10/22 09:05:16;;;;;;;5.68;2.30;;;;;;;26.11;42.26;152606.22;5091684;28;20672;-61
2022/10/22 09:07:48;;;;;;;3.67;2.03;;;;;;;26.06;42.74;152594.72;5092306;28;20190;-61
2022/10/22 09:10:16;;;;;;;3.03;2.50;;;;;;;26.88;42.19;152801.97;5092364;28;20214;-62
2022/10/22 09:12:43;;;;;;;3.15;2.17;;;;;;;27.21;39.83;152885.09;5092149;28;20188;-60
2022/10/22 09:15:14;;;;;;;3.53;2.20;;;;;;;25.72;41.61;152507.81;5092210;28;20230;-59
2022/10/22 09:17:54;;;;;;;10.10;2.50;;;;;;;26.45;41.61;152693.22;5092192;28;20210;-60
2022/10/22 09:20:27;;;;;;;5.10;2.30;;;;;;;26.72;40.88;152762.28;5092373;28;20190;-61
2022/10/22 09:23:05;;;;;;;4.45;2.58;;;;;;;26.56;40.06;152721.38;5092041;28;20188;-60
2022/10/22 09:25:36;;;;;;;2.97;2.13;;;;;;;25.65;41.94;152491.22;5092250;28;20210;-59
2022/10/22 09:28:05;;;;;;;6.78;2.30;;;;;;;27.30;40.32;152906.84;5092301;28;20183;-61
2022/10/22 09:30:36;;;;;;;2.58;2.00;;;;;;;28.40;38.60;153187.22;5090880;28;20238;-60
2022/10/22 09:33:12;;;;;;;2.20;2.10;;;;;;;27.26;39.53;152899.19;5092094;28;20601;-60
2022/10/22 09:35:47;;;;;;;6.10;2.60;;;;;;;25.23;42.61;152385.09;5092277;28;20199;-61
2022/10/22 09:38:16;;;;;;;2.42;2.33;;;;;;;25.10;43.48;152350.59;5092069;28;20656;-60
2022/10/22 09:40:44;;;;;;;6.10;2.40;;;;;;;24.28;45.38;152143.63;5092157;28;20554;-60
2022/10/22 09:43:13;;;;;;;2.42;2.33;;;;;;;23.07;48.06;151839.81;5090573;28;20195;-61
2022/10/22 09:45:40;;;;;;;4.35;2.80;;;;;;;22.22;51.74;151624.22;5092142;28;20611;-60
2022/10/22 09:48:12;;;;;;;2.33;2.13;;;;;;;21.77;53.94;151511.94;5091675;28;20191;-62
2022/10/22 09:50:43;;;;;;;3.38;3.17;;;;;;;21.61;56.74;151471.16;5091700;28;20222;-60
2022/10/22 09:53:19;;;;;;;3.67;3.08;;;;;;;21.59;57.70;151464.81;5091723;28;20180;-61
2022/10/22 09:55:51;;;;;;;7.05;2.72;;;;;;;21.38;59.49;151413.84;5091741;28;20630;-61
2022/10/22 09:58:19;;;;;;;12.10;3.03;;;;;;;21.42;61.24;151424.03;5091951;28;20203;-60
2022/10/22 10:00:48;;;;;;;3.10;2.30;;;;;;;21.07;58.46;151334.78;5091876;28;20184;-61
2022/10/22 10:03:20;;;;;;;6.43;3.03;;;;;;;21.07;60.15;151333.50;5091527;28;20188;-60
2022/10/22 10:05:48;;;;;;;3.55;2.53;;;;;;;20.75;63.28;151254.50;5091666;28;20194;-61
2022/10/22 10:08:19;;;;;;;6.85;2.60;;;;;;;20.47;63.75;151184.47;5091545;28;20191;-60
2022/10/22 10:10:49;;;;;;;3.60;2.97;;;;;;;20.36;66.45;151155.22;5091394;28;20313;-60
2022/10/22 10:13:46;;;;;;;5.17;3.70;;;;;;;20.33;69.13;151148.81;5091699;28;20262;-61
2022/10/22 10:16:27;;;;;;;6.17;3.00;;;;;;;20.55;67.72;151203.56;5089988;28;20245;-61
2022/10/22 10:19:07;;;;;;;5.33;2.63;;;;;;;20.69;65.16;151237.97;5091584;28;20707;-61
2022/10/22 10:21:44;;;;;;;3.80;2.60;;;;;;;21.38;62.23;151412.56;5091481;28;20184;-61
2022/10/22 10:24:22;;;;;;;5.13;2.60;;;;;;;21.85;60.02;151531.09;5091854;28;20213;-60
2022/10/22 10:26:58;;;;;;;8.63;2.67;;;;;;;22.24;56.82;151630.56;5091605;28;20615;-61
2022/10/22 10:29:40;;;;;;;7.43;2.90;;;;;;;22.79;55.03;151768.34;5091369;28;20233;-61
2022/10/22 10:32:25;;;;;;;3.25;2.58;;;;;;;22.36;55.65;151658.66;5091300;28;20204;-60
2022/10/22 10:35:01;;;;;;;2.80;2.53;;;;;;;22.13;56.04;151602.53;5091219;28;20192;-60
2022/10/22 10:37:35;;;;;;;8.25;2.80;;;;;;;21.74;58.41;151503.03;5091328;28;20188;-60
2022/10/22 10:40:19;;;;;;;3.83;2.15;;;;;;;21.10;61.54;151341.13;5091204;28;20188;-60
2022/10/22 10:42:53;;;;;;;5.80;2.60;;;;;;;20.93;64.59;151300.38;5095264;28;20499;-61
2022/10/22 10:45:29;;;;;;;4.53;2.50;;;;;;;20.39;65.55;151164.09;5095088;28;20187;-60
2022/10/22 10:48:17;;;;;;;6.35;3.15;;;;;;;20.51;66.74;151194.66;5095178;28;20190;-60
2022/10/22 10:50:56;;;;;;;4.00;2.65;;;;;;;20.45;66.82;151178.13;5094852;28;20290;-60
2022/10/22 10:53:34;;;;;;;2.85;2.65;;;;;;;20.79;66.09;151264.69;5094886;28;20188;-60
2022/10/22 10:56:14;;;;;;;4.13;2.75;;;;;;;21.14;63.71;151352.66;5094967;28;20266;-60
2022/10/22 10:58:49;;;;;;;2.80;2.55;;;;;;;21.13;65.92;151350.09;5094907;28;20184;-60
2022/10/22 11:01:27;;;;;;;9.40;3.10;;;;;;;21.17;64.88;151359.06;5094821;28;20192;-61
2022/10/22 11:04:18;;;;;;;3.10;2.97;;;;;;;21.05;62.39;151329.66;5094806;28;20198;-61
2022/10/22 11:06:46;;;;;;;9.50;2.70;;;;;;;20.92;63.53;151296.53;5064039;28;20211;-61
2022/10/22 11:09:25;;;;;;;4.15;3.70;;;;;;;21.00;65.10;151316.97;5094696;28;20180;-61
2022/10/22 11:11:57;;;;;;;3.28;2.67;;;;;;;20.88;61.71;151286.34;5094492;28;20260;-62
2022/10/22 11:14:32;;;;;;;2.93;2.70;;;;;;;20.92;63.10;151296.53;5094807;28;20535;-60
2022/10/22 11:17:04;;;;;;;3.17;2.90;;;;;;;20.91;63.60;151294.03;5094787;28;20191;-61
2022/10/22 11:19:38;;;;;;;3.10;2.90;;;;;;;20.87;63.74;151283.84;5094783;28;20195;-61
2022/10/22 11:22:14;;;;;;;3.25;3.00;;;;;;;21.03;64.50;151324.59;5094255;28;20184;-60
2022/10/22 11:24:49;;;;;;;3.50;3.20;;;;;;;21.04;65.34;151327.16;5094577;28;20179;-61
2022/10/22 11:27:28;;;;;;;2.75;2.30;;;;;;;20.91;62.58;151295.31;5094629;28;20245;-62
2022/10/22 11:30:02;;;;;;;3.17;2.95;;;;;;;20.94;62.88;151301.66;5094069;28;20236;-60
2022/10/22 11:32:31;;;;;;;2.90;2.73;;;;;;;20.89;63.19;151288.91;5094346;28;20198;-60
2022/10/22 11:35:01;;;;;;;4.90;2.78;;;;;;;21.03;63.52;151324.59;5094110;28;20206;-61
2022/10/22 11:37:33;;;;;;;2.63;2.53;;;;;;;21.25;62.19;151380.72;5094177;28;20188;-60
2022/10/22 11:40:05;;;;;;;3.08;2.83;;;;;;;21.19;61.80;151365.41;5076007;28;20628;-61